createdAt,value
2023-01-22T00:02:13.932Z,92.40
2023-01-22T00:04:44.576Z,92.30
2023-01-22T00:07:16.731Z,92.10
2023-01-22T00:09:47.483Z,92.00
2023-01-22T00:12:18.156Z,91.80
2023-01-22T00:14:50.275Z,91.70
2023-01-22T00:17:20.976Z,91.60
2023-01-22T00:19:51.811Z,91.40
2023-01-22T00:22:26.237Z,91.20
2023-01-22T00:24:57.111Z,91.00
2023-01-22T00:27:27.966Z,90.80
2023-01-22T00:29:58.720Z,90.50
2023-01-22T00:32:29.641Z,90.40
2023-01-22T00:35:00.327Z,90.30
2023-01-22T00:37:31.073Z,90.00
2023-01-22T00:40:01.788Z,89.70
2023-01-22T00:42:32.654Z,89.70
2023-01-22T00:45:03.367Z,89.30
2023-01-22T00:47:34.197Z,89.20
2023-01-22T00:50:05.457Z,88.90
2023-01-22T00:52:39.017Z,89.10
2023-01-22T00:55:10.847Z,88.80
2023-01-22T00:57:41.643Z,88.40
2023-01-22T01:00:13.786Z,88.60
2023-01-22T01:03:02.829Z,88.50
2023-01-22T01:05:33.506Z,88.40
2023-01-22T01:08:04.319Z,88.10
2023-01-22T01:10:35.227Z,87.90
2023-01-22T01:13:07.521Z,87.90
2023-01-22T01:15:38.236Z,87.90
2023-01-22T01:18:11.591Z,87.60
2023-01-22T01:20:45.153Z,87.30
2023-01-22T01:23:16.686Z,86.50
2023-01-22T01:25:47.388Z,86.20
2023-01-22T01:28:18.094Z,85.90
2023-01-22T01:30:49.165Z,85.60
2023-01-22T01:33:20.039Z,85.30
2023-01-22T01:35:51.363Z,85.30
2023-01-22T01:38:22.108Z,85.00
2023-01-22T01:40:52.908Z,84.50
2023-01-22T01:43:24.145Z,84.00
2023-01-22T01:48:47.246Z,83.00
2023-01-22T01:51:32.740Z,83.20
2023-01-22T01:54:05.710Z,83.80
2023-01-22T01:56:41.997Z,84.10
2023-01-22T01:59:15.309Z,84.10
2023-01-22T02:01:48.669Z,84.30
2023-01-22T02:04:20.663Z,85.40
2023-01-22T02:06:51.804Z,84.40
2023-01-22T02:09:23.367Z,84.60
2023-01-22T02:11:55.459Z,84.50
2023-01-22T02:14:34.631Z,84.80
2023-01-22T02:17:16.999Z,85.60
2023-01-22T02:19:47.905Z,85.40
2023-01-22T02:22:23.680Z,85.00
2023-01-22T02:24:54.991Z,84.60
2023-01-22T02:27:31.346Z,84.50
2023-01-22T02:30:02.245Z,84.40
2023-01-22T02:32:34.588Z,83.90
2023-01-22T02:35:05.912Z,83.10
2023-01-22T02:37:37.936Z,83.00
2023-01-22T02:40:09.609Z,82.90
2023-01-22T02:42:40.400Z,82.60
2023-01-22T02:45:15.232Z,82.60
2023-01-22T02:47:46.021Z,82.40
2023-01-22T02:50:17.361Z,82.10
2023-01-22T02:52:48.742Z,82.00
2023-01-22T02:55:19.649Z,81.80
2023-01-22T02:57:50.502Z,81.60
2023-01-22T03:00:22.308Z,81.30
2023-01-22T03:02:53.587Z,81.10
2023-01-22T03:05:24.690Z,81.60
2023-01-22T03:07:55.716Z,81.50
2023-01-22T03:10:27.010Z,80.80
2023-01-22T03:13:15.950Z,80.70
2023-01-22T03:16:04.285Z,79.90
2023-01-22T03:18:52.690Z,80.10
2023-01-22T03:21:23.648Z,80.20
2023-01-22T03:23:57.881Z,80.10
2023-01-22T03:26:30.020Z,79.70
2023-01-22T03:29:00.708Z,79.10
2023-01-22T03:31:31.846Z,79.00
2023-01-22T03:34:03.555Z,78.70
2023-01-22T03:36:34.991Z,78.80
2023-01-22T03:39:06.060Z,77.60
2023-01-22T03:41:36.870Z,75.40
2023-01-22T03:44:09.343Z,75.20
2023-01-22T03:46:41.368Z,74.70
2023-01-22T03:49:14.108Z,72.40
2023-01-22T03:51:45.524Z,71.20
2023-01-22T03:54:17.827Z,70.10
2023-01-22T03:56:49.336Z,66.80
2023-01-22T03:59:20.219Z,66.20
2023-01-22T04:01:52.114Z,65.40
2023-01-22T04:04:23.180Z,62.50
2023-01-22T04:06:54.140Z,62.10
2023-01-22T04:09:25.052Z,63.40
2023-01-22T04:11:56.083Z,62.30
2023-01-22T04:14:29.929Z,60.50
2023-01-22T04:17:00.825Z,60.20
2023-01-22T04:19:31.949Z,59.90
2023-01-22T04:22:02.658Z,59.60
2023-01-22T04:24:33.730Z,58.70
2023-01-22T04:27:04.551Z,58.70
2023-01-22T04:29:35.493Z,58.70
2023-01-22T04:32:06.760Z,57.70
2023-01-22T04:34:37.983Z,57.60
2023-01-22T04:37:09.008Z,57.80
2023-01-22T04:39:39.804Z,56.50
2023-01-22T04:42:11.779Z,56.80
2023-01-22T04:44:42.444Z,56.10
2023-01-22T04:47:13.877Z,56.70
2023-01-22T04:49:44.719Z,57.70
2023-01-22T04:52:15.814Z,56.70
2023-01-22T04:54:47.428Z,56.60
2023-01-22T04:57:18.726Z,56.80
2023-01-22T04:59:50.336Z,57.00
2023-01-22T05:02:23.958Z,57.30
2023-01-22T05:04:54.944Z,56.50
2023-01-22T05:07:26.093Z,56.00
2023-01-22T05:09:56.817Z,55.70
2023-01-22T05:12:35.986Z,55.90
2023-01-22T05:15:22.475Z,56.00
2023-01-22T05:17:39.710Z,56.10
2023-01-22T05:20:11.619Z,54.60
2023-01-22T05:22:42.625Z,54.30
2023-01-22T05:25:13.896Z,53.80
2023-01-22T05:27:44.839Z,53.60
2023-01-22T05:30:16.668Z,53.00
2023-01-22T05:32:48.692Z,53.20
2023-01-22T05:35:19.484Z,53.70
2023-01-22T05:37:50.179Z,53.10
2023-01-22T05:40:21.267Z,53.40
2023-01-22T05:42:52.531Z,53.80
2023-01-22T05:45:23.767Z,53.80
2023-01-22T05:47:57.565Z,53.30
2023-01-22T05:50:29.668Z,51.60
2023-01-22T05:53:00.875Z,52.40
2023-01-22T05:55:31.905Z,52.50
2023-01-22T05:58:03.400Z,51.90
2023-01-22T06:00:34.792Z,51.10
2023-01-22T06:03:05.940Z,51.70
2023-01-22T06:05:37.241Z,51.80
2023-01-22T06:08:08.612Z,51.70
2023-01-22T06:10:39.893Z,51.10
2023-01-22T06:13:11.329Z,52.00
2023-01-22T06:15:42.660Z,50.90
2023-01-22T06:18:13.854Z,49.80
2023-01-22T06:20:44.936Z,47.70
2023-01-22T06:23:16.589Z,47.80
2023-01-22T06:25:48.721Z,47.20
2023-01-22T06:28:19.943Z,47.30
2023-01-22T06:30:51.575Z,45.60
2023-01-22T06:36:11.213Z,46.10
2023-01-22T06:38:42.168Z,45.20
2023-01-22T06:41:13.029Z,45.00
2023-01-22T06:43:43.838Z,45.50
2023-01-22T06:46:15.678Z,45.90
2023-01-22T06:48:49.768Z,44.30
2023-01-22T06:51:19.944Z,45.00
2023-01-22T06:53:51.014Z,44.90
2023-01-22T06:56:23.175Z,42.60
2023-01-22T06:58:53.986Z,41.00
2023-01-22T07:01:25.280Z,41.50
2023-01-22T07:03:56.799Z,44.00
2023-01-22T07:06:30.416Z,44.40
2023-01-22T07:11:51.531Z,44.30
2023-01-22T07:14:36.205Z,44.50
2023-01-22T07:16:54.629Z,44.10
2023-01-22T07:19:30.992Z,42.50
2023-01-22T07:22:04.766Z,41.10
2023-01-22T07:24:38.159Z,43.50
2023-01-22T07:27:09.037Z,43.20
2023-01-22T07:29:40.013Z,42.80
2023-01-22T07:32:10.704Z,43.20
2023-01-22T07:34:41.869Z,42.90
2023-01-22T07:37:13.132Z,42.60
2023-01-22T07:39:48.818Z,41.70
2023-01-22T07:42:20.870Z,40.90
2023-01-22T07:44:51.571Z,41.70
2023-01-22T07:47:23.857Z,42.40
2023-01-22T07:49:54.544Z,43.40
2023-01-22T07:52:25.223Z,42.90
2023-01-22T07:54:55.939Z,43.40
2023-01-22T07:57:26.811Z,43.20
2023-01-22T07:59:58.808Z,42.50
2023-01-22T08:02:29.640Z,43.40
2023-01-22T08:05:00.431Z,42.40
2023-01-22T08:07:31.641Z,41.20
2023-01-22T08:10:02.469Z,42.30
2023-01-22T08:12:33.280Z,42.80
2023-01-22T08:15:03.947Z,43.60
2023-01-22T08:17:38.971Z,43.40
2023-01-22T08:20:10.895Z,42.30
2023-01-22T08:22:41.637Z,42.30
2023-01-22T08:25:13.117Z,42.50
2023-01-22T08:27:44.920Z,42.20
2023-01-22T08:30:17.586Z,42.80
2023-01-22T08:32:49.015Z,43.30
2023-01-22T08:35:20.211Z,44.00
2023-01-22T08:37:51.324Z,43.80
2023-01-22T08:40:26.785Z,43.50
2023-01-22T08:42:58.936Z,44.40
2023-01-22T08:45:41.475Z,43.90
2023-01-22T08:48:12.146Z,44.40
2023-01-22T08:50:45.693Z,44.30
2023-01-22T08:53:19.276Z,45.10
2023-01-22T08:55:51.828Z,44.80
2023-01-22T08:58:23.330Z,44.50
2023-01-22T09:00:55.879Z,45.00
2023-01-22T09:03:26.918Z,44.90
2023-01-22T09:05:59.172Z,44.70
2023-01-22T09:08:30.153Z,44.40
2023-01-22T09:11:00.959Z,44.80
2023-01-22T09:13:31.857Z,45.70
2023-01-22T09:16:02.771Z,45.30
2023-01-22T09:18:34.095Z,44.80
2023-01-22T09:21:05.442Z,45.40
2023-01-22T09:23:36.235Z,45.70
2023-01-22T09:26:07.315Z,45.80
2023-01-22T09:28:38.226Z,45.90
2023-01-22T09:31:09.341Z,46.20
2023-01-22T09:33:40.157Z,46.60
2023-01-22T09:36:13.401Z,46.60
2023-01-22T09:41:44.079Z,46.30
2023-01-22T09:44:17.328Z,46.40
2023-01-22T09:46:54.647Z,46.90
2023-01-22T09:49:31.831Z,47.20
2023-01-22T09:52:08.309Z,46.50
2023-01-22T09:54:41.869Z,46.70
2023-01-22T09:57:30.642Z,46.10
2023-01-22T09:59:50.693Z,46.20
2023-01-22T10:02:30.310Z,47.50
2023-01-22T10:05:18.579Z,46.50
2023-01-22T10:07:57.951Z,46.60
2023-01-22T10:10:30.199Z,46.50
2023-01-22T10:13:18.575Z,46.30
2023-01-22T10:15:50.554Z,46.40
2023-01-22T10:18:26.530Z,46.40
2023-01-22T10:20:58.908Z,46.60
2023-01-22T10:23:30.411Z,47.20
2023-01-22T10:26:09.376Z,48.80
2023-01-22T10:28:40.295Z,48.40
2023-01-22T10:31:25.482Z,48.50
2023-01-22T10:34:01.868Z,48.90
2023-01-22T10:36:33.646Z,48.60
2023-01-22T10:39:15.591Z,48.70
2023-01-22T10:41:48.491Z,49.90
2023-01-22T10:44:28.048Z,49.60
2023-01-22T10:47:00.431Z,50.70
2023-01-22T10:49:31.363Z,50.30
2023-01-22T10:52:04.066Z,50.70
2023-01-22T10:54:37.336Z,51.20
2023-01-22T10:57:10.584Z,51.30
2023-01-22T10:59:41.601Z,51.20
2023-01-22T11:02:17.623Z,51.40
2023-01-22T11:04:48.537Z,51.40
2023-01-22T11:07:32.586Z,51.50
2023-01-22T11:10:26.245Z,51.70
2023-01-22T11:13:20.665Z,51.70
2023-01-22T11:15:57.495Z,52.30
2023-01-22T11:18:43.098Z,52.60
2023-01-22T11:21:22.181Z,52.90
2023-01-22T11:24:07.452Z,53.00
2023-01-22T11:27:02.036Z,56.90
2023-01-22T11:29:41.233Z,54.50
2023-01-22T11:32:36.584Z,66.90
2023-01-22T11:35:15.675Z,54.30
2023-01-22T11:40:39.416Z,53.80
2023-01-22T11:43:21.925Z,54.40
2023-01-22T11:46:13.440Z,54.80
2023-01-22T11:48:52.448Z,54.80
2023-01-22T11:56:59.326Z,54.20
2023-01-22T12:02:46.229Z,56.80
2023-01-22T12:05:25.304Z,56.70
2023-01-22T12:08:11.607Z,56.90
2023-01-22T12:10:51.997Z,56.90
2023-01-22T12:13:41.824Z,56.90
2023-01-22T12:16:18.325Z,57.30
2023-01-22T12:19:01.072Z,57.50
2023-01-22T12:21:42.527Z,57.40
2023-01-22T12:24:24.529Z,57.40
2023-01-22T12:27:12.330Z,57.10
2023-01-22T12:29:53.880Z,57.00
2023-01-22T12:32:26.333Z,57.60
2023-01-22T12:35:06.724Z,57.50
2023-01-22T12:37:51.841Z,57.20
2023-01-22T12:40:52.764Z,57.20
2023-01-22T12:43:26.111Z,57.30
2023-01-22T12:46:03.526Z,57.30
2023-01-22T12:49:05.802Z,57.50
2023-01-22T12:51:45.637Z,57.70
2023-01-22T12:54:36.260Z,57.80
2023-01-22T12:57:26.967Z,57.40
2023-01-22T13:00:15.490Z,57.80
2023-01-22T13:02:52.640Z,58.00
2023-01-22T13:05:33.070Z,58.30
2023-01-22T13:08:32.722Z,58.10
2023-01-22T13:11:05.862Z,57.90
2023-01-22T13:13:39.160Z,57.90
2023-01-22T13:16:21.870Z,58.20
2023-01-22T13:19:00.474Z,58.30
2023-01-22T13:21:33.386Z,58.50
2023-01-22T13:24:07.010Z,58.70
2023-01-22T13:26:41.876Z,58.90
2023-01-22T13:29:31.146Z,58.90
2023-01-22T13:32:06.199Z,59.00
2023-01-22T13:34:36.809Z,60.00
2023-01-22T13:37:09.399Z,59.50
2023-01-22T13:39:43.666Z,59.70
2023-01-22T13:42:21.908Z,60.00
2023-01-22T13:44:54.278Z,59.80
2023-01-22T13:47:35.896Z,60.00
2023-01-22T13:50:07.643Z,59.90
2023-01-22T13:52:38.839Z,59.80
2023-01-22T13:55:16.468Z,59.90
2023-01-22T13:57:51.862Z,60.00
2023-01-22T14:00:37.516Z,60.60
2023-01-22T14:03:27.359Z,61.80
2023-01-22T14:06:09.827Z,61.50
2023-01-22T14:08:51.873Z,61.10
2023-01-22T14:11:24.595Z,61.10
2023-01-22T14:13:56.193Z,61.60
2023-01-22T14:16:28.566Z,62.00
2023-01-22T14:19:06.065Z,62.20
2023-01-22T14:21:42.192Z,62.60
2023-01-22T14:24:13.354Z,62.80
2023-01-22T14:26:44.378Z,62.80
2023-01-22T14:32:06.690Z,63.20
2023-01-22T14:34:37.676Z,64.40
2023-01-22T14:37:08.868Z,64.90
2023-01-22T14:39:40.018Z,65.70
2023-01-22T14:42:11.910Z,66.60
2023-01-22T14:44:44.546Z,67.30
2023-01-22T14:47:18.283Z,67.90
2023-01-22T14:49:48.526Z,68.20
2023-01-22T14:52:19.416Z,67.90
2023-01-22T14:54:50.279Z,68.10
2023-01-22T14:57:20.977Z,68.40
2023-01-22T14:59:52.278Z,68.60
2023-01-22T15:02:23.141Z,69.60
2023-01-22T15:05:00.641Z,70.50
2023-01-22T15:07:30.602Z,70.10
2023-01-22T15:10:02.172Z,70.10
2023-01-22T15:12:32.982Z,71.20
2023-01-22T15:15:03.907Z,71.30
2023-01-22T15:17:35.947Z,71.30
2023-01-22T15:20:07.158Z,71.40
2023-01-22T15:22:38.002Z,71.30
2023-01-22T15:25:10.786Z,71.30
2023-01-22T15:27:44.739Z,71.90
2023-01-22T15:30:18.841Z,71.80
2023-01-22T15:32:52.259Z,72.20
2023-01-22T15:35:23.061Z,72.00
2023-01-22T15:37:53.854Z,72.30
2023-01-22T15:40:24.579Z,73.30
2023-01-22T15:42:55.519Z,73.10
2023-01-22T15:45:27.038Z,73.20
2023-01-22T15:47:58.213Z,73.60
2023-01-22T15:50:35.619Z,73.50
2023-01-22T15:53:08.471Z,73.40
2023-01-22T15:55:39.512Z,73.50
2023-01-22T15:58:11.876Z,74.30
2023-01-22T16:00:42.667Z,74.60
2023-01-22T16:03:16.935Z,75.30
2023-01-22T16:05:47.004Z,74.90
2023-01-22T16:08:20.510Z,75.50
2023-01-22T16:10:55.136Z,76.40
2023-01-22T16:13:26.225Z,76.70
2023-01-22T16:16:02.219Z,77.40
2023-01-22T16:18:35.425Z,77.70
2023-01-22T16:21:09.002Z,78.40
2023-01-22T16:23:41.507Z,79.10
2023-01-22T16:26:15.905Z,78.70
2023-01-22T16:28:48.313Z,78.70
2023-01-22T16:31:24.726Z,79.50
2023-01-22T16:33:57.061Z,79.90
2023-01-22T16:36:32.674Z,80.00
2023-01-22T16:39:03.867Z,80.30
2023-01-22T16:41:36.521Z,80.40
2023-01-22T16:44:12.599Z,81.00
2023-01-22T16:46:46.218Z,80.80
2023-01-22T16:49:22.693Z,80.60
2023-01-22T16:51:56.139Z,80.80
2023-01-22T16:54:33.466Z,80.40
2023-01-22T16:57:16.395Z,80.40
2023-01-22T16:59:49.237Z,80.60
2023-01-22T17:02:21.431Z,80.80
2023-01-22T17:04:52.550Z,81.00
2023-01-22T17:07:33.171Z,81.00
2023-01-22T17:09:55.955Z,81.40
2023-01-22T17:12:29.904Z,81.60
2023-01-22T17:15:07.052Z,81.30
2023-01-22T17:17:38.058Z,81.30
2023-01-22T17:20:12.581Z,81.10
2023-01-22T17:22:43.473Z,81.20
2023-01-22T17:25:14.624Z,81.40
2023-01-22T17:27:45.581Z,81.70
2023-01-22T17:30:17.886Z,81.70
2023-01-22T17:32:49.173Z,82.20
2023-01-22T17:35:20.575Z,82.40
2023-01-22T17:37:51.571Z,82.30
2023-01-22T17:40:22.359Z,82.40
2023-01-22T17:42:54.158Z,82.70
2023-01-22T17:45:25.071Z,82.80
2023-01-22T17:47:57.432Z,83.10
2023-01-22T17:50:28.568Z,83.40
2023-01-22T17:52:59.632Z,83.80
2023-01-22T17:55:31.907Z,84.20
2023-01-22T17:58:02.824Z,84.40
2023-01-22T18:00:34.027Z,84.60
2023-01-22T18:03:04.981Z,84.60
2023-01-22T18:05:36.572Z,84.80
2023-01-22T18:08:07.813Z,85.20
2023-01-22T18:10:40.177Z,85.60
2023-01-22T18:13:10.911Z,86.00
2023-01-22T18:15:41.835Z,86.30
2023-01-22T18:18:12.719Z,86.50
2023-01-22T18:20:45.539Z,86.40
2023-01-22T18:23:17.596Z,86.70
2023-01-22T18:25:55.444Z,87.40
2023-01-22T18:28:28.275Z,87.90
2023-01-22T18:31:00.466Z,88.10
2023-01-22T18:33:31.758Z,88.10
2023-01-22T18:36:02.594Z,88.00
2023-01-22T18:38:33.635Z,87.70
2023-01-22T18:41:09.599Z,87.60
2023-01-22T18:43:40.689Z,87.50
2023-01-22T18:46:15.638Z,87.50
2023-01-22T18:48:46.906Z,87.50
2023-01-22T18:51:17.721Z,87.50
2023-01-22T18:53:48.657Z,88.60
2023-01-22T18:56:19.655Z,89.20
2023-01-22T18:58:50.976Z,89.60
2023-01-22T19:01:35.801Z,90.30
2023-01-22T19:04:09.185Z,90.10
2023-01-22T19:06:41.278Z,90.10
2023-01-22T19:09:32.353Z,90.10
2023-01-22T19:12:03.227Z,90.10
2023-01-22T19:14:33.978Z,90.20
2023-01-22T19:17:06.148Z,90.20
2023-01-22T19:19:36.958Z,90.00
2023-01-22T19:22:07.645Z,90.00
2023-01-22T19:24:38.579Z,89.60
2023-01-22T19:27:09.337Z,89.80
2023-01-22T19:29:40.260Z,89.70
2023-01-22T19:32:12.721Z,88.70
2023-01-22T19:35:02.777Z,88.00
2023-01-22T19:37:33.845Z,89.00
2023-01-22T19:40:04.660Z,87.40
2023-01-22T19:42:35.403Z,87.10
2023-01-22T19:45:06.748Z,87.00
2023-01-22T19:47:37.472Z,86.80
2023-01-22T19:50:09.516Z,86.40
2023-01-22T19:52:40.190Z,85.80
2023-01-22T19:55:11.576Z,85.40
2023-01-22T19:57:42.267Z,85.80
2023-01-22T20:00:14.330Z,85.50
2023-01-22T20:02:45.123Z,85.70
2023-01-22T20:05:17.687Z,85.80
2023-01-22T20:07:49.486Z,85.30
2023-01-22T20:10:20.398Z,85.30
2023-01-22T20:12:52.585Z,85.20
2023-01-22T20:15:23.645Z,85.30
2023-01-22T20:17:55.652Z,84.60
2023-01-22T20:20:27.173Z,84.40
2023-01-22T20:22:57.923Z,84.90
2023-01-22T20:25:30.211Z,86.20
2023-01-22T20:28:01.633Z,83.90
2023-01-22T20:30:32.559Z,83.20
2023-01-22T20:33:03.373Z,83.50
2023-01-22T20:35:34.199Z,83.50
2023-01-22T20:38:05.013Z,83.50
2023-01-22T20:40:37.207Z,83.90
2023-01-22T20:43:08.548Z,84.80
2023-01-22T20:45:39.313Z,84.40
2023-01-22T20:48:10.217Z,84.80
2023-01-22T20:50:44.535Z,85.10
2023-01-22T20:53:15.307Z,85.60
2023-01-22T20:55:46.027Z,85.40
2023-01-22T20:58:16.833Z,85.00
2023-01-22T21:00:47.588Z,84.90
2023-01-22T21:03:18.256Z,85.00
2023-01-22T21:05:49.045Z,85.00
2023-01-22T21:08:19.743Z,85.00
2023-01-22T21:11:01.611Z,84.90
2023-01-22T21:13:32.484Z,84.90
2023-01-22T21:16:14.360Z,84.10
2023-01-22T21:18:47.580Z,83.60
2023-01-22T21:21:20.833Z,83.40
2023-01-22T21:23:53.778Z,83.40
2023-01-22T21:26:26.872Z,83.60
2023-01-22T21:28:59.965Z,83.20
2023-01-22T21:31:31.938Z,83.80
2023-01-22T21:34:05.087Z,83.70
2023-01-22T21:36:41.807Z,83.70
2023-01-22T21:39:15.097Z,83.90
2023-01-22T21:41:45.949Z,84.00
2023-01-22T21:44:36.722Z,84.10
2023-01-22T21:47:07.815Z,83.80
2023-01-22T21:49:38.605Z,84.10
2023-01-22T21:52:10.554Z,83.90
2023-01-22T21:54:45.355Z,84.10
2023-01-22T21:57:18.435Z,83.90
2023-01-22T21:59:53.760Z,83.50
2023-01-22T22:02:24.617Z,83.60
2023-01-22T22:04:55.387Z,83.40
2023-01-22T22:07:26.188Z,83.60
2023-01-22T22:09:56.903Z,83.80
2023-01-22T22:12:29.063Z,83.50
2023-01-22T22:14:59.914Z,83.90
2023-01-22T22:17:30.600Z,83.60
2023-01-22T22:20:01.334Z,82.90
2023-01-22T22:22:32.632Z,82.80
2023-01-22T22:25:03.372Z,82.20
2023-01-22T22:27:34.142Z,81.70
2023-01-22T22:30:04.927Z,81.40
2023-01-22T22:32:36.015Z,81.70
2023-01-22T22:35:07.264Z,81.90
2023-01-22T22:37:38.337Z,81.60
2023-01-22T22:40:11.919Z,82.00
2023-01-22T22:42:42.613Z,82.00
2023-01-22T22:45:13.749Z,81.90
2023-01-22T22:47:44.618Z,82.00
2023-01-22T22:50:15.325Z,82.20
2023-01-22T22:52:46.689Z,82.50
2023-01-22T22:55:17.550Z,82.40
2023-01-22T22:57:49.627Z,82.30
2023-01-22T23:00:22.057Z,83.00
2023-01-22T23:02:52.893Z,84.40
2023-01-22T23:05:23.675Z,84.90
2023-01-22T23:07:54.678Z,85.20
2023-01-22T23:10:31.241Z,85.80
2023-01-22T23:13:03.957Z,84.90
2023-01-22T23:15:35.516Z,85.10
2023-01-22T23:18:06.415Z,85.30
2023-01-22T23:20:37.741Z,85.30
2023-01-22T23:23:08.643Z,85.70
2023-01-22T23:25:39.346Z,86.40
2023-01-22T23:28:10.140Z,86.70
2023-01-22T23:30:41.129Z,87.30
2023-01-22T23:33:12.258Z,87.40
2023-01-22T23:35:43.026Z,88.00
2023-01-22T23:38:14.314Z,88.10
2023-01-22T23:40:45.203Z,88.50
2023-01-22T23:43:16.012Z,88.90
2023-01-22T23:45:46.728Z,88.80
2023-01-22T23:48:17.535Z,89.20
2023-01-22T23:50:52.982Z,89.40
2023-01-22T23:53:24.349Z,89.80
2023-01-22T23:56:02.808Z,89.90
2023-01-22T23:58:33.971Z,89.40
